Layton, Florida
Current Conditions -  °F | °C
As of 7:13 AM on Monday 20 Oct 2014 (Local Time) from KMTH Reporting Station
Light Rain Light Rain  
Wind Chill: 75°   Ceiling: 3300
Heat Index: 75°   Visibility: 5mi
Dew Point: 74°   Wind: 3mph
Humidity: 96%   Direction: 70°ENE
Pressure: 29.96"   Gusts: NA
Location:  24.8241°N, 80.818°W
Report Text: KMTH 201113Z AUTO 07003KT 5SM -RA BR BKN033 BKN048 OVC060 24/23 A2996 RMK AO2 P0014 T02390233
Loading
Personal Weather Stations






























Interactive Weather Map
Tropical Storm Tracking
New forecast layout! Learn more

10-Day Weather Forecast

Advertisements
Track Severe Weather on mobile